sensor_id;sensor_type;location;lat;lon;timestamp;temperature;humidity
46816;DHT22;32787;53.316;8.670;2023-05-10T00:01:55;14.40;93.80
46816;DHT22;32787;53.316;8.670;2023-05-10T00:04:21;14.50;93.80
46816;DHT22;32787;53.316;8.670;2023-05-10T00:06:46;14.50;93.80
46816;DHT22;32787;53.316;8.670;2023-05-10T00:09:12;14.50;93.80
46816;DHT22;32787;53.316;8.670;2023-05-10T00:11:38;14.50;93.70
46816;DHT22;32787;53.316;8.670;2023-05-10T00:14:03;14.50;93.70
46816;DHT22;32787;53.316;8.670;2023-05-10T00:16:29;14.40;93.80
46816;DHT22;32787;53.316;8.670;2023-05-10T00:18:54;14.40;93.90
46816;DHT22;32787;53.316;8.670;2023-05-10T00:21:20;14.40;93.90
46816;DHT22;32787;53.316;8.670;2023-05-10T00:23:45;14.40;93.90
46816;DHT22;32787;53.316;8.670;2023-05-10T00:26:11;14.50;94.00
46816;DHT22;32787;53.316;8.670;2023-05-10T00:28:37;14.40;93.80
46816;DHT22;32787;53.316;8.670;2023-05-10T00:31:02;14.40;93.80
46816;DHT22;32787;53.316;8.670;2023-05-10T00:33:28;14.30;93.90
46816;DHT22;32787;53.316;8.670;2023-05-10T00:35:54;14.30;94.00
46816;DHT22;32787;53.316;8.670;2023-05-10T00:38:19;14.20;94.00
46816;DHT22;32787;53.316;8.670;2023-05-10T00:40:45;14.10;94.00
46816;DHT22;32787;53.316;8.670;2023-05-10T00:43:10;14.10;94.00
46816;DHT22;32787;53.316;8.670;2023-05-10T00:45:37;14.10;94.00
46816;DHT22;32787;53.316;8.670;2023-05-10T00:48:03;14.10;93.90
46816;DHT22;32787;53.316;8.670;2023-05-10T00:50:30;14.10;93.90
46816;DHT22;32787;53.316;8.670;2023-05-10T00:52:57;14.00;93.70
46816;DHT22;32787;53.316;8.670;2023-05-10T00:55:23;13.90;93.60
46816;DHT22;32787;53.316;8.670;2023-05-10T00:57:49;13.80;93.10
46816;DHT22;32787;53.316;8.670;2023-05-10T01:00:15;13.60;92.90
46816;DHT22;32787;53.316;8.670;2023-05-10T01:02:45;13.60;92.60
46816;DHT22;32787;53.316;8.670;2023-05-10T01:05:11;13.50;92.20
46816;DHT22;32787;53.316;8.670;2023-05-10T01:07:37;13.60;92.20
46816;DHT22;32787;53.316;8.670;2023-05-10T01:10:04;13.50;91.40
46816;DHT22;32787;53.316;8.670;2023-05-10T01:12:30;13.30;90.90
46816;DHT22;32787;53.316;8.670;2023-05-10T01:14:56;13.30;90.90
46816;DHT22;32787;53.316;8.670;2023-05-10T01:17:22;13.30;90.80
46816;DHT22;32787;53.316;8.670;2023-05-10T01:19:49;13.50;90.70
46816;DHT22;32787;53.316;8.670;2023-05-10T01:35:40;13.30;90.80
46816;DHT22;32787;53.316;8.670;2023-05-10T01:41:09;13.60;90.30
46816;DHT22;32787;53.316;8.670;2023-05-10T01:43:55;13.60;90.20
46816;DHT22;32787;53.316;8.670;2023-05-10T01:46:32;13.60;90.00
46816;DHT22;32787;53.316;8.670;2023-05-10T01:49:00;13.60;89.90
46816;DHT22;32787;53.316;8.670;2023-05-10T01:51:31;13.50;89.80
46816;DHT22;32787;53.316;8.670;2023-05-10T01:54:02;13.60;89.80
46816;DHT22;32787;53.316;8.670;2023-05-10T01:56:30;13.60;89.70
46816;DHT22;32787;53.316;8.670;2023-05-10T01:58:58;13.60;89.60
46816;DHT22;32787;53.316;8.670;2023-05-10T02:01:24;13.30;89.10
46816;DHT22;32787;53.316;8.670;2023-05-10T02:03:51;13.30;89.60
46816;DHT22;32787;53.316;8.670;2023-05-10T02:06:20;13.40;89.50
46816;DHT22;32787;53.316;8.670;2023-05-10T02:08:47;13.30;89.30
46816;DHT22;32787;53.316;8.670;2023-05-10T02:11:14;13.30;89.50
46816;DHT22;32787;53.316;8.670;2023-05-10T02:13:41;13.20;88.80
46816;DHT22;32787;53.316;8.670;2023-05-10T02:16:07;13.00;88.90
46816;DHT22;32787;53.316;8.670;2023-05-10T02:18:34;12.70;88.50
46816;DHT22;32787;53.316;8.670;2023-05-10T02:21:02;12.40;88.90
46816;DHT22;32787;53.316;8.670;2023-05-10T02:23:29;12.30;89.50
46816;DHT22;32787;53.316;8.670;2023-05-10T02:25:56;12.30;89.80
46816;DHT22;32787;53.316;8.670;2023-05-10T02:28:23;12.30;89.50
46816;DHT22;32787;53.316;8.670;2023-05-10T02:30:51;12.20;89.70
46816;DHT22;32787;53.316;8.670;2023-05-10T02:33:18;12.30;89.80
46816;DHT22;32787;53.316;8.670;2023-05-10T02:35:45;12.30;89.90
46816;DHT22;32787;53.316;8.670;2023-05-10T02:38:11;12.30;90.00
46816;DHT22;32787;53.316;8.670;2023-05-10T02:40:41;12.30;90.00
46816;DHT22;32787;53.316;8.670;2023-05-10T02:43:11;12.20;89.60
46816;DHT22;32787;53.316;8.670;2023-05-10T02:45:38;12.00;89.60
46816;DHT22;32787;53.316;8.670;2023-05-10T02:48:05;11.90;89.70
46816;DHT22;32787;53.316;8.670;2023-05-10T02:50:33;12.10;89.90
46816;DHT22;32787;53.316;8.670;2023-05-10T02:53:15;12.00;89.30
46816;DHT22;32787;53.316;8.670;2023-05-10T02:55:41;12.00;89.70
46816;DHT22;32787;53.316;8.670;2023-05-10T02:58:07;12.00;88.90
46816;DHT22;32787;53.316;8.670;2023-05-10T03:00:33;11.90;89.00
46816;DHT22;32787;53.316;8.670;2023-05-10T03:02:59;11.90;88.60
46816;DHT22;32787;53.316;8.670;2023-05-10T03:05:25;11.90;88.30
46816;DHT22;32787;53.316;8.670;2023-05-10T03:07:51;11.90;87.50
46816;DHT22;32787;53.316;8.670;2023-05-10T03:10:18;11.90;87.30
46816;DHT22;32787;53.316;8.670;2023-05-10T03:12:47;12.00;86.80
46816;DHT22;32787;53.316;8.670;2023-05-10T03:15:36;12.30;86.30
46816;DHT22;32787;53.316;8.670;2023-05-10T03:20:41;12.20;86.20
46816;DHT22;32787;53.316;8.670;2023-05-10T03:23:26;12.30;86.30
46816;DHT22;32787;53.316;8.670;2023-05-10T03:25:53;12.40;86.90
46816;DHT22;32787;53.316;8.670;2023-05-10T03:28:20;12.40;86.60
46816;DHT22;32787;53.316;8.670;2023-05-10T03:30:46;12.30;87.20
46816;DHT22;32787;53.316;8.670;2023-05-10T03:33:12;12.30;87.00
46816;DHT22;32787;53.316;8.670;2023-05-10T03:35:38;12.40;87.40
46816;DHT22;32787;53.316;8.670;2023-05-10T03:38:04;12.50;87.30
46816;DHT22;32787;53.316;8.670;2023-05-10T03:40:30;12.40;87.40
46816;DHT22;32787;53.316;8.670;2023-05-10T03:42:58;12.30;87.70
46816;DHT22;32787;53.316;8.670;2023-05-10T03:45:23;12.30;87.80
46816;DHT22;32787;53.316;8.670;2023-05-10T03:47:49;12.30;87.80
46816;DHT22;32787;53.316;8.670;2023-05-10T03:50:15;12.50;87.70
46816;DHT22;32787;53.316;8.670;2023-05-10T03:52:40;12.40;87.40
46816;DHT22;32787;53.316;8.670;2023-05-10T03:55:06;12.30;87.70
46816;DHT22;32787;53.316;8.670;2023-05-10T03:57:33;12.40;87.50
46816;DHT22;32787;53.316;8.670;2023-05-10T03:59:59;12.30;87.60
46816;DHT22;32787;53.316;8.670;2023-05-10T04:02:25;12.40;87.70
46816;DHT22;32787;53.316;8.670;2023-05-10T04:04:50;12.40;87.20
46816;DHT22;32787;53.316;8.670;2023-05-10T04:07:16;12.40;87.50
46816;DHT22;32787;53.316;8.670;2023-05-10T04:09:42;12.40;87.40
46816;DHT22;32787;53.316;8.670;2023-05-10T04:12:07;12.30;87.70
46816;DHT22;32787;53.316;8.670;2023-05-10T04:14:33;12.40;87.80
46816;DHT22;32787;53.316;8.670;2023-05-10T04:16:59;12.50;87.50
46816;DHT22;32787;53.316;8.670;2023-05-10T04:19:29;12.40;87.20
46816;DHT22;32787;53.316;8.670;2023-05-10T04:21:54;12.40;87.20
46816;DHT22;32787;53.316;8.670;2023-05-10T04:24:20;12.50;86.60
46816;DHT22;32787;53.316;8.670;2023-05-10T04:26:46;12.50;86.60
46816;DHT22;32787;53.316;8.670;2023-05-10T04:29:11;12.40;87.10
46816;DHT22;32787;53.316;8.670;2023-05-10T04:31:37;12.20;86.80
46816;DHT22;32787;53.316;8.670;2023-05-10T04:34:02;12.00;86.40
46816;DHT22;32787;53.316;8.670;2023-05-10T04:36:28;11.90;86.10
46816;DHT22;32787;53.316;8.670;2023-05-10T04:38:54;11.90;86.50
46816;DHT22;32787;53.316;8.670;2023-05-10T04:41:19;11.80;86.70
46816;DHT22;32787;53.316;8.670;2023-05-10T04:43:46;11.80;86.90
46816;DHT22;32787;53.316;8.670;2023-05-10T04:46:14;11.60;86.90
46816;DHT22;32787;53.316;8.670;2023-05-10T04:48:39;11.60;86.70
46816;DHT22;32787;53.316;8.670;2023-05-10T04:51:05;11.60;87.20
46816;DHT22;32787;53.316;8.670;2023-05-10T04:53:32;11.70;87.20
46816;DHT22;32787;53.316;8.670;2023-05-10T04:55:57;11.70;86.90
46816;DHT22;32787;53.316;8.670;2023-05-10T04:58:23;11.70;86.40
46816;DHT22;32787;53.316;8.670;2023-05-10T05:00:49;11.70;86.90
46816;DHT22;32787;53.316;8.670;2023-05-10T05:03:14;11.90;87.50
46816;DHT22;32787;53.316;8.670;2023-05-10T05:05:40;12.10;87.40
46816;DHT22;32787;53.316;8.670;2023-05-10T05:08:05;11.90;87.60
46816;DHT22;32787;53.316;8.670;2023-05-10T05:10:31;11.80;88.10
46816;DHT22;32787;53.316;8.670;2023-05-10T05:12:57;11.60;88.60
46816;DHT22;32787;53.316;8.670;2023-05-10T05:15:22;11.80;88.80
46816;DHT22;32787;53.316;8.670;2023-05-10T05:17:48;12.10;88.50
46816;DHT22;32787;53.316;8.670;2023-05-10T05:20:14;11.70;88.60
46816;DHT22;32787;53.316;8.670;2023-05-10T05:22:39;11.50;89.20
46816;DHT22;32787;53.316;8.670;2023-05-10T05:25:06;11.60;89.70
46816;DHT22;32787;53.316;8.670;2023-05-10T05:27:31;11.50;89.40
46816;DHT22;32787;53.316;8.670;2023-05-10T05:29:57;11.40;89.80
46816;DHT22;32787;53.316;8.670;2023-05-10T05:32:24;11.60;90.20
46816;DHT22;32787;53.316;8.670;2023-05-10T05:34:50;11.60;90.10
46816;DHT22;32787;53.316;8.670;2023-05-10T05:37:18;11.50;89.90
46816;DHT22;32787;53.316;8.670;2023-05-10T05:39:44;11.60;90.40
46816;DHT22;32787;53.316;8.670;2023-05-10T05:42:10;11.60;90.20
46816;DHT22;32787;53.316;8.670;2023-05-10T05:44:36;11.70;90.50
46816;DHT22;32787;53.316;8.670;2023-05-10T05:47:02;11.70;90.70
46816;DHT22;32787;53.316;8.670;2023-05-10T05:49:27;11.50;90.60
46816;DHT22;32787;53.316;8.670;2023-05-10T05:51:54;11.50;90.70
46816;DHT22;32787;53.316;8.670;2023-05-10T05:54:20;11.30;90.80
46816;DHT22;32787;53.316;8.670;2023-05-10T05:56:45;11.30;91.10
46816;DHT22;32787;53.316;8.670;2023-05-10T05:59:11;11.30;91.20
46816;DHT22;32787;53.316;8.670;2023-05-10T06:01:37;11.30;91.20
46816;DHT22;32787;53.316;8.670;2023-05-10T06:04:02;11.20;91.10
46816;DHT22;32787;53.316;8.670;2023-05-10T06:06:28;11.30;91.30
46816;DHT22;32787;53.316;8.670;2023-05-10T06:08:54;11.40;91.30
46816;DHT22;32787;53.316;8.670;2023-05-10T06:11:20;11.50;91.10
46816;DHT22;32787;53.316;8.670;2023-05-10T06:13:47;11.40;91.00
46816;DHT22;32787;53.316;8.670;2023-05-10T06:16:13;11.30;91.10
46816;DHT22;32787;53.316;8.670;2023-05-10T06:18:39;11.30;91.40
46816;DHT22;32787;53.316;8.670;2023-05-10T06:21:04;11.30;91.60
46816;DHT22;32787;53.316;8.670;2023-05-10T06:23:30;11.20;91.70
46816;DHT22;32787;53.316;8.670;2023-05-10T06:25:56;11.30;92.10
46816;DHT22;32787;53.316;8.670;2023-05-10T06:28:21;11.60;92.00
46816;DHT22;32787;53.316;8.670;2023-05-10T06:30:47;11.60;91.30
46816;DHT22;32787;53.316;8.670;2023-05-10T06:33:13;11.40;91.30
46816;DHT22;32787;53.316;8.670;2023-05-10T06:35:38;11.60;91.80
46816;DHT22;32787;53.316;8.670;2023-05-10T06:38:04;11.60;91.50
46816;DHT22;32787;53.316;8.670;2023-05-10T06:40:30;11.40;91.40
46816;DHT22;32787;53.316;8.670;2023-05-10T06:42:55;11.40;91.60
46816;DHT22;32787;53.316;8.670;2023-05-10T06:45:21;11.40;91.80
46816;DHT22;32787;53.316;8.670;2023-05-10T06:47:46;11.50;91.90
46816;DHT22;32787;53.316;8.670;2023-05-10T06:50:12;11.60;91.90
46816;DHT22;32787;53.316;8.670;2023-05-10T06:52:38;11.60;91.80
46816;DHT22;32787;53.316;8.670;2023-05-10T06:55:05;11.50;91.80
46816;DHT22;32787;53.316;8.670;2023-05-10T06:57:31;11.50;92.00
46816;DHT22;32787;53.316;8.670;2023-05-10T06:59:58;11.70;92.20
46816;DHT22;32787;53.316;8.670;2023-05-10T07:02:24;11.80;91.90
46816;DHT22;32787;53.316;8.670;2023-05-10T07:04:49;11.70;91.90
46816;DHT22;32787;53.316;8.670;2023-05-10T07:07:17;11.70;92.10
46816;DHT22;32787;53.316;8.670;2023-05-10T07:09:42;11.70;92.30
46816;DHT22;32787;53.316;8.670;2023-05-10T07:12:08;11.80;92.50
46816;DHT22;32787;53.316;8.670;2023-05-10T07:14:33;12.20;92.30
46816;DHT22;32787;53.316;8.670;2023-05-10T07:16:59;12.20;91.50
46816;DHT22;32787;53.316;8.670;2023-05-10T07:19:25;12.20;91.80
46816;DHT22;32787;53.316;8.670;2023-05-10T07:21:50;12.30;92.00
46816;DHT22;32787;53.316;8.670;2023-05-10T07:24:16;12.40;91.70
46816;DHT22;32787;53.316;8.670;2023-05-10T07:26:41;12.50;91.80
46816;DHT22;32787;53.316;8.670;2023-05-10T07:29:07;12.50;91.80
46816;DHT22;32787;53.316;8.670;2023-05-10T07:31:33;12.40;91.70
46816;DHT22;32787;53.316;8.670;2023-05-10T07:33:58;12.40;92.00
46816;DHT22;32787;53.316;8.670;2023-05-10T07:36:24;12.40;92.20
46816;DHT22;32787;53.316;8.670;2023-05-10T07:38:49;12.40;92.70
46816;DHT22;32787;53.316;8.670;2023-05-10T07:41:15;12.40;92.90
46816;DHT22;32787;53.316;8.670;2023-05-10T07:43:41;12.50;93.00
46816;DHT22;32787;53.316;8.670;2023-05-10T07:46:06;12.50;93.20
46816;DHT22;32787;53.316;8.670;2023-05-10T07:48:32;12.60;93.30
46816;DHT22;32787;53.316;8.670;2023-05-10T07:50:58;12.80;93.30
46816;DHT22;32787;53.316;8.670;2023-05-10T07:53:25;13.00;93.40
46816;DHT22;32787;53.316;8.670;2023-05-10T07:55:54;13.10;93.20
46816;DHT22;32787;53.316;8.670;2023-05-10T07:58:22;13.10;93.10
46816;DHT22;32787;53.316;8.670;2023-05-10T08:00:47;13.10;93.10
46816;DHT22;32787;53.316;8.670;2023-05-10T08:03:14;13.20;93.30
46816;DHT22;32787;53.316;8.670;2023-05-10T08:05:40;13.50;93.30
46816;DHT22;32787;53.316;8.670;2023-05-10T08:08:06;13.80;93.00
46816;DHT22;32787;53.316;8.670;2023-05-10T08:10:32;14.00;92.00
46816;DHT22;32787;53.316;8.670;2023-05-10T08:12:57;14.10;91.60
46816;DHT22;32787;53.316;8.670;2023-05-10T08:15:24;14.20;91.70
46816;DHT22;32787;53.316;8.670;2023-05-10T08:17:53;14.30;91.50
46816;DHT22;32787;53.316;8.670;2023-05-10T08:20:18;14.40;91.30
46816;DHT22;32787;53.316;8.670;2023-05-10T08:22:47;14.30;91.50
46816;DHT22;32787;53.316;8.670;2023-05-10T08:25:13;14.50;91.60
46816;DHT22;32787;53.316;8.670;2023-05-10T08:27:38;14.60;91.40
46816;DHT22;32787;53.316;8.670;2023-05-10T08:30:04;14.80;91.70
46816;DHT22;32787;53.316;8.670;2023-05-10T08:32:30;14.80;90.70
46816;DHT22;32787;53.316;8.670;2023-05-10T08:34:56;14.80;91.00
46816;DHT22;32787;53.316;8.670;2023-05-10T08:37:23;14.70;91.20
46816;DHT22;32787;53.316;8.670;2023-05-10T08:39:49;14.90;91.10
46816;DHT22;32787;53.316;8.670;2023-05-10T08:42:18;14.90;90.80
46816;DHT22;32787;53.316;8.670;2023-05-10T08:44:48;15.10;90.80
46816;DHT22;32787;53.316;8.670;2023-05-10T08:47:15;15.20;90.20
46816;DHT22;32787;53.316;8.670;2023-05-10T08:49:41;15.00;90.30
46816;DHT22;32787;53.316;8.670;2023-05-10T08:52:10;15.10;90.30
46816;DHT22;32787;53.316;8.670;2023-05-10T08:54:36;14.80;89.70
46816;DHT22;32787;53.316;8.670;2023-05-10T08:57:03;14.70;90.00
46816;DHT22;32787;53.316;8.670;2023-05-10T08:59:30;14.80;89.90
46816;DHT22;32787;53.316;8.670;2023-05-10T09:01:57;14.90;89.40
46816;DHT22;32787;53.316;8.670;2023-05-10T09:04:24;14.90;89.90
46816;DHT22;32787;53.316;8.670;2023-05-10T09:06:50;14.90;89.90
46816;DHT22;32787;53.316;8.670;2023-05-10T09:09:17;15.00;90.20
46816;DHT22;32787;53.316;8.670;2023-05-10T09:11:43;15.20;89.20
46816;DHT22;32787;53.316;8.670;2023-05-10T09:14:10;15.30;89.50
46816;DHT22;32787;53.316;8.670;2023-05-10T09:16:37;15.40;88.60
46816;DHT22;32787;53.316;8.670;2023-05-10T09:19:03;15.30;88.30
46816;DHT22;32787;53.316;8.670;2023-05-10T09:21:29;15.40;88.60
46816;DHT22;32787;53.316;8.670;2023-05-10T09:23:56;15.60;88.70
46816;DHT22;32787;53.316;8.670;2023-05-10T09:26:23;15.80;88.00
46816;DHT22;32787;53.316;8.670;2023-05-10T09:28:56;15.80;87.10
46816;DHT22;32787;53.316;8.670;2023-05-10T09:31:22;15.80;87.10
46816;DHT22;32787;53.316;8.670;2023-05-10T09:33:49;15.90;86.60
46816;DHT22;32787;53.316;8.670;2023-05-10T09:36:15;16.00;87.00
46816;DHT22;32787;53.316;8.670;2023-05-10T09:38:52;16.00;85.70
46816;DHT22;32787;53.316;8.670;2023-05-10T09:41:22;15.90;85.60
46816;DHT22;32787;53.316;8.670;2023-05-10T09:43:48;15.80;86.20
46816;DHT22;32787;53.316;8.670;2023-05-10T09:46:17;15.60;86.40
46816;DHT22;32787;53.316;8.670;2023-05-10T09:48:45;15.60;86.60
46816;DHT22;32787;53.316;8.670;2023-05-10T09:51:18;15.40;86.60
46816;DHT22;32787;53.316;8.670;2023-05-10T09:53:44;15.40;87.00
46816;DHT22;32787;53.316;8.670;2023-05-10T09:56:09;15.30;87.40
46816;DHT22;32787;53.316;8.670;2023-05-10T09:58:36;15.50;87.30
46816;DHT22;32787;53.316;8.670;2023-05-10T10:01:03;15.60;87.00
46816;DHT22;32787;53.316;8.670;2023-05-10T10:03:30;15.80;86.30
46816;DHT22;32787;53.316;8.670;2023-05-10T10:05:55;15.70;86.10
46816;DHT22;32787;53.316;8.670;2023-05-10T10:08:21;15.80;86.70
46816;DHT22;32787;53.316;8.670;2023-05-10T10:10:47;15.90;86.40
46816;DHT22;32787;53.316;8.670;2023-05-10T10:13:13;15.80;85.90
46816;DHT22;32787;53.316;8.670;2023-05-10T10:15:39;15.80;85.90
46816;DHT22;32787;53.316;8.670;2023-05-10T10:18:05;15.60;87.00
46816;DHT22;32787;53.316;8.670;2023-05-10T10:20:31;15.60;86.30
46816;DHT22;32787;53.316;8.670;2023-05-10T10:22:56;15.70;86.50
46816;DHT22;32787;53.316;8.670;2023-05-10T10:25:22;15.60;86.50
46816;DHT22;32787;53.316;8.670;2023-05-10T10:30:35;15.60;87.30
46816;DHT22;32787;53.316;8.670;2023-05-10T10:35:53;15.70;87.20
46816;DHT22;32787;53.316;8.670;2023-05-10T10:38:20;15.60;87.50
46816;DHT22;32787;53.316;8.670;2023-05-10T10:40:47;15.60;87.30
46816;DHT22;32787;53.316;8.670;2023-05-10T10:43:23;15.50;87.30
46816;DHT22;32787;53.316;8.670;2023-05-10T10:48:38;15.70;88.00
46816;DHT22;32787;53.316;8.670;2023-05-10T10:51:03;15.90;87.40
46816;DHT22;32787;53.316;8.670;2023-05-10T10:53:29;15.90;86.80
46816;DHT22;32787;53.316;8.670;2023-05-10T10:56:09;16.20;87.00
46816;DHT22;32787;53.316;8.670;2023-05-10T10:58:37;16.30;85.70
46816;DHT22;32787;53.316;8.670;2023-05-10T11:01:14;16.30;85.50
46816;DHT22;32787;53.316;8.670;2023-05-10T11:03:41;16.50;86.20
46816;DHT22;32787;53.316;8.670;2023-05-10T11:06:32;16.80;86.30
46816;DHT22;32787;53.316;8.670;2023-05-10T11:09:08;17.40;84.30
46816;DHT22;32787;53.316;8.670;2023-05-10T11:11:35;17.50;83.40
46816;DHT22;32787;53.316;8.670;2023-05-10T11:14:07;17.40;83.60
46816;DHT22;32787;53.316;8.670;2023-05-10T11:16:43;17.30;83.40
46816;DHT22;32787;53.316;8.670;2023-05-10T11:19:11;17.20;83.90
46816;DHT22;32787;53.316;8.670;2023-05-10T11:21:48;17.20;83.80
46816;DHT22;32787;53.316;8.670;2023-05-10T11:24:17;17.30;83.30
46816;DHT22;32787;53.316;8.670;2023-05-10T11:26:43;17.70;83.20
46816;DHT22;32787;53.316;8.670;2023-05-10T11:29:09;18.40;82.40
46816;DHT22;32787;53.316;8.670;2023-05-10T11:31:35;18.80;80.50
46816;DHT22;32787;53.316;8.670;2023-05-10T11:34:07;19.10;79.90
46816;DHT22;32787;53.316;8.670;2023-05-10T11:36:34;19.00;78.30
46816;DHT22;32787;53.316;8.670;2023-05-10T11:38:59;18.80;80.20
46816;DHT22;32787;53.316;8.670;2023-05-10T11:41:27;18.30;80.50
46816;DHT22;32787;53.316;8.670;2023-05-10T11:43:54;17.60;81.40
46816;DHT22;32787;53.316;8.670;2023-05-10T11:46:21;17.30;83.10
46816;DHT22;32787;53.316;8.670;2023-05-10T11:48:50;17.00;83.50
46816;DHT22;32787;53.316;8.670;2023-05-10T11:51:20;17.00;83.40
46816;DHT22;32787;53.316;8.670;2023-05-10T11:53:46;16.80;83.60
46816;DHT22;32787;53.316;8.670;2023-05-10T11:56:11;16.70;84.60
46816;DHT22;32787;53.316;8.670;2023-05-10T11:58:38;16.90;84.80
46816;DHT22;32787;53.316;8.670;2023-05-10T12:01:05;17.00;84.30
46816;DHT22;32787;53.316;8.670;2023-05-10T12:03:32;16.50;84.70
46816;DHT22;32787;53.316;8.670;2023-05-10T12:05:58;16.00;85.80
46816;DHT22;32787;53.316;8.670;2023-05-10T12:08:29;15.90;86.40
46816;DHT22;32787;53.316;8.670;2023-05-10T12:11:08;15.80;87.30
46816;DHT22;32787;53.316;8.670;2023-05-10T12:13:41;15.80;87.60
46816;DHT22;32787;53.316;8.670;2023-05-10T12:16:21;16.20;87.60
46816;DHT22;32787;53.316;8.670;2023-05-10T12:18:51;16.20;87.10
46816;DHT22;32787;53.316;8.670;2023-05-10T12:21:18;16.20;87.00
46816;DHT22;32787;53.316;8.670;2023-05-10T12:23:46;16.10;87.50
46816;DHT22;32787;53.316;8.670;2023-05-10T12:26:12;15.90;87.50
46816;DHT22;32787;53.316;8.670;2023-05-10T12:28:38;15.80;88.20
46816;DHT22;32787;53.316;8.670;2023-05-10T12:31:06;15.50;88.60
46816;DHT22;32787;53.316;8.670;2023-05-10T12:33:40;15.20;88.30
46816;DHT22;32787;53.316;8.670;2023-05-10T12:36:10;15.10;89.00
46816;DHT22;32787;53.316;8.670;2023-05-10T12:38:38;15.00;89.60
46816;DHT22;32787;53.316;8.670;2023-05-10T12:41:09;15.10;89.00
46816;DHT22;32787;53.316;8.670;2023-05-10T12:43:36;15.00;89.20
46816;DHT22;32787;53.316;8.670;2023-05-10T12:46:09;14.80;89.80
46816;DHT22;32787;53.316;8.670;2023-05-10T12:48:36;14.70;89.90
46816;DHT22;32787;53.316;8.670;2023-05-10T12:51:03;14.70;90.70
46816;DHT22;32787;53.316;8.670;2023-05-10T12:53:29;14.90;90.90
46816;DHT22;32787;53.316;8.670;2023-05-10T12:55:55;15.00;90.60
46816;DHT22;32787;53.316;8.670;2023-05-10T12:58:21;15.10;90.10
46816;DHT22;32787;53.316;8.670;2023-05-10T13:00:46;15.10;90.70
46816;DHT22;32787;53.316;8.670;2023-05-10T13:03:12;15.00;90.50
46816;DHT22;32787;53.316;8.670;2023-05-10T13:05:38;15.10;90.60
46816;DHT22;32787;53.316;8.670;2023-05-10T13:08:04;15.00;90.60
46816;DHT22;32787;53.316;8.670;2023-05-10T13:10:30;14.90;91.00
46816;DHT22;32787;53.316;8.670;2023-05-10T13:12:56;14.90;90.80
46816;DHT22;32787;53.316;8.670;2023-05-10T13:15:22;15.00;91.10
46816;DHT22;32787;53.316;8.670;2023-05-10T13:17:48;15.30;91.40
46816;DHT22;32787;53.316;8.670;2023-05-10T13:20:14;15.30;90.20
46816;DHT22;32787;53.316;8.670;2023-05-10T13:22:40;15.20;90.10
46816;DHT22;32787;53.316;8.670;2023-05-10T13:25:06;14.90;90.00
46816;DHT22;32787;53.316;8.670;2023-05-10T13:27:32;15.00;90.30
46816;DHT22;32787;53.316;8.670;2023-05-10T13:29:57;15.10;90.30
46816;DHT22;32787;53.316;8.670;2023-05-10T13:32:25;15.10;90.40
46816;DHT22;32787;53.316;8.670;2023-05-10T13:34:51;15.20;90.10
46816;DHT22;32787;53.316;8.670;2023-05-10T13:37:16;15.10;90.40
46816;DHT22;32787;53.316;8.670;2023-05-10T13:39:42;15.00;90.40
46816;DHT22;32787;53.316;8.670;2023-05-10T13:42:08;14.90;90.30
46816;DHT22;32787;53.316;8.670;2023-05-10T13:44:33;14.90;90.80
46816;DHT22;32787;53.316;8.670;2023-05-10T13:46:59;14.80;90.80
46816;DHT22;32787;53.316;8.670;2023-05-10T13:49:25;14.80;90.20
46816;DHT22;32787;53.316;8.670;2023-05-10T13:51:50;14.60;90.30
46816;DHT22;32787;53.316;8.670;2023-05-10T13:54:16;14.60;90.50
46816;DHT22;32787;53.316;8.670;2023-05-10T13:56:45;14.50;90.70
46816;DHT22;32787;53.316;8.670;2023-05-10T13:59:12;14.40;90.70
46816;DHT22;32787;53.316;8.670;2023-05-10T14:01:39;14.50;90.90
46816;DHT22;32787;53.316;8.670;2023-05-10T14:04:06;14.40;91.20
46816;DHT22;32787;53.316;8.670;2023-05-10T14:06:35;14.30;91.20
46816;DHT22;32787;53.316;8.670;2023-05-10T14:09:01;14.30;91.50
46816;DHT22;32787;53.316;8.670;2023-05-10T14:11:27;14.30;91.90
46816;DHT22;32787;53.316;8.670;2023-05-10T14:13:53;14.20;91.90
46816;DHT22;32787;53.316;8.670;2023-05-10T14:16:19;14.30;92.00
46816;DHT22;32787;53.316;8.670;2023-05-10T14:18:45;14.20;91.90
46816;DHT22;32787;53.316;8.670;2023-05-10T14:21:11;14.10;91.70
46816;DHT22;32787;53.316;8.670;2023-05-10T14:23:37;14.00;91.50
46816;DHT22;32787;53.316;8.670;2023-05-10T14:26:03;14.00;92.00
46816;DHT22;32787;53.316;8.670;2023-05-10T14:28:28;13.90;92.00
46816;DHT22;32787;53.316;8.670;2023-05-10T14:30:54;13.90;92.20
46816;DHT22;32787;53.316;8.670;2023-05-10T14:33:20;13.90;92.50
46816;DHT22;32787;53.316;8.670;2023-05-10T14:35:46;13.80;92.40
46816;DHT22;32787;53.316;8.670;2023-05-10T14:38:12;13.90;92.50
46816;DHT22;32787;53.316;8.670;2023-05-10T14:40:38;14.20;92.60
46816;DHT22;32787;53.316;8.670;2023-05-10T14:43:03;14.30;92.40
46816;DHT22;32787;53.316;8.670;2023-05-10T14:45:30;14.40;92.40
46816;DHT22;32787;53.316;8.670;2023-05-10T14:47:56;14.50;92.70
46816;DHT22;32787;53.316;8.670;2023-05-10T14:50:22;14.60;92.60
46816;DHT22;32787;53.316;8.670;2023-05-10T14:52:48;14.70;92.10
46816;DHT22;32787;53.316;8.670;2023-05-10T14:55:14;14.90;92.10
46816;DHT22;32787;53.316;8.670;2023-05-10T14:57:40;15.50;92.20
46816;DHT22;32787;53.316;8.670;2023-05-10T15:00:06;15.50;91.00
46816;DHT22;32787;53.316;8.670;2023-05-10T15:02:32;15.20;89.80
46816;DHT22;32787;53.316;8.670;2023-05-10T15:04:58;15.10;90.20
46816;DHT22;32787;53.316;8.670;2023-05-10T15:07:23;15.20;90.90
46816;DHT22;32787;53.316;8.670;2023-05-10T15:09:52;15.40;90.40
46816;DHT22;32787;53.316;8.670;2023-05-10T15:12:18;15.20;89.50
46816;DHT22;32787;53.316;8.670;2023-05-10T15:14:44;15.00;90.20
46816;DHT22;32787;53.316;8.670;2023-05-10T15:17:09;15.00;90.30
46816;DHT22;32787;53.316;8.670;2023-05-10T15:19:35;14.80;89.80
46816;DHT22;32787;53.316;8.670;2023-05-10T15:22:01;14.60;90.30
46816;DHT22;32787;53.316;8.670;2023-05-10T15:24:28;14.50;90.50
46816;DHT22;32787;53.316;8.670;2023-05-10T15:26:53;14.60;90.50
46816;DHT22;32787;53.316;8.670;2023-05-10T15:29:19;14.30;90.40
46816;DHT22;32787;53.316;8.670;2023-05-10T15:31:49;14.30;90.40
46816;DHT22;32787;53.316;8.670;2023-05-10T15:34:15;14.30;91.00
46816;DHT22;32787;53.316;8.670;2023-05-10T15:36:41;14.30;91.20
46816;DHT22;32787;53.316;8.670;2023-05-10T15:39:06;14.40;91.20
46816;DHT22;32787;53.316;8.670;2023-05-10T15:41:32;14.30;91.10
46816;DHT22;32787;53.316;8.670;2023-05-10T15:43:58;14.10;91.20
46816;DHT22;32787;53.316;8.670;2023-05-10T15:46:30;14.10;91.20
46816;DHT22;32787;53.316;8.670;2023-05-10T15:48:57;14.30;91.20
46816;DHT22;32787;53.316;8.670;2023-05-10T15:51:23;14.40;91.00
46816;DHT22;32787;53.316;8.670;2023-05-10T15:53:49;14.40;90.50
46816;DHT22;32787;53.316;8.670;2023-05-10T15:56:14;14.40;90.50